createdAt,value
2019-03-12T00:01:21.246Z,7.43
2019-03-12T00:03:50.586Z,5.87
2019-03-12T00:06:19.891Z,11.80
2019-03-12T00:08:50.015Z,6.80
2019-03-12T00:11:19.423Z,5.40
2019-03-12T00:13:48.910Z,6.40
2019-03-12T00:16:18.680Z,9.50
2019-03-12T00:18:48.064Z,6.97
2019-03-12T00:21:17.381Z,9.93
2019-03-12T00:23:46.674Z,7.93
2019-03-12T00:26:16.343Z,12.80
2019-03-12T00:28:45.605Z,9.40
2019-03-12T00:31:14.884Z,7.07
2019-03-12T00:33:44.230Z,9.53
2019-03-12T00:36:13.488Z,5.47
2019-03-12T00:38:42.875Z,13.73
2019-03-12T00:41:12.710Z,11.87
2019-03-12T00:43:41.975Z,13.23
2019-03-12T00:46:11.296Z,9.53
2019-03-12T00:48:40.530Z,7.00
2019-03-12T00:51:10.361Z,8.93
2019-03-12T00:53:39.727Z,8.20
2019-03-12T00:56:09.003Z,7.63
2019-03-12T00:58:38.284Z,6.70
2019-03-12T01:01:07.585Z,17.33
2019-03-12T01:03:36.822Z,6.00
2019-03-12T01:06:09.076Z,6.57
2019-03-12T01:08:38.395Z,3.80
2019-03-12T01:11:07.710Z,4.53
2019-03-12T01:13:37.017Z,13.03
2019-03-12T01:16:06.651Z,4.67
2019-03-12T01:18:35.899Z,6.43
2019-03-12T01:21:05.140Z,5.60
2019-03-12T01:23:34.445Z,4.27
2019-03-12T01:26:04.419Z,3.97
2019-03-12T01:28:33.737Z,11.70
2019-03-12T01:31:03.438Z,8.23
2019-03-12T01:33:32.841Z,6.37
2019-03-12T01:36:03.191Z,5.03
2019-03-12T01:38:32.992Z,10.10
2019-03-12T01:41:02.632Z,2.43
2019-03-12T01:43:31.876Z,3.70
2019-03-12T01:46:01.163Z,4.07
2019-03-12T01:48:30.424Z,8.83
2019-03-12T01:50:59.839Z,2.07
2019-03-12T01:53:29.166Z,6.23
2019-03-12T01:55:58.829Z,13.97
2019-03-12T01:58:28.119Z,3.00
2019-03-12T02:00:57.430Z,7.07
2019-03-12T02:03:27.235Z,4.20
2019-03-12T02:05:56.505Z,5.00
2019-03-12T02:08:25.871Z,3.73
2019-03-12T02:10:55.109Z,2.70
2019-03-12T02:13:24.733Z,6.00
2019-03-12T02:15:54.089Z,10.17
2019-03-12T02:18:23.331Z,10.50
2019-03-12T02:20:52.597Z,3.43
2019-03-12T02:23:22.730Z,17.97
2019-03-12T02:25:52.068Z,14.17
2019-03-12T02:28:21.429Z,8.30
2019-03-12T02:30:50.950Z,5.30
2019-03-12T02:33:20.269Z,8.60
2019-03-12T02:35:50.009Z,3.97
2019-03-12T02:38:19.366Z,11.83
2019-03-12T02:40:48.667Z,10.73
2019-03-12T02:43:18.770Z,5.13
2019-03-12T02:45:48.085Z,7.17
2019-03-12T02:48:17.862Z,9.60
2019-03-12T02:50:47.148Z,9.40
2019-03-12T02:53:16.430Z,7.50
2019-03-12T02:55:45.709Z,6.67
2019-03-12T02:58:15.033Z,7.10
2019-03-12T03:00:44.351Z,6.30
2019-03-12T03:03:13.743Z,9.47
2019-03-12T03:05:53.866Z,12.17
2019-03-12T03:08:27.657Z,10.27
2019-03-12T03:10:57.072Z,9.73
2019-03-12T03:13:26.433Z,11.37
2019-03-12T03:15:55.754Z,9.67
2019-03-12T03:18:25.014Z,6.23
2019-03-12T03:20:54.328Z,7.30
2019-03-12T03:23:25.205Z,9.33
2019-03-12T03:25:54.630Z,9.90
2019-03-12T03:28:23.947Z,6.83
2019-03-12T03:30:53.284Z,10.90
2019-03-12T03:33:22.618Z,11.43
2019-03-12T03:35:52.419Z,11.43
2019-03-12T03:38:21.820Z,8.07
2019-03-12T03:40:51.210Z,12.63
2019-03-12T03:43:20.514Z,8.57
2019-03-12T03:45:49.846Z,15.53
2019-03-12T03:48:19.742Z,12.43
2019-03-12T03:50:49.218Z,12.83
2019-03-12T03:53:18.758Z,12.83
2019-03-12T03:55:48.415Z,12.47
2019-03-12T03:58:17.837Z,15.70
2019-03-12T04:00:47.421Z,13.20
2019-03-12T04:03:16.756Z,13.60
2019-03-12T04:05:46.004Z,15.97
2019-03-12T04:08:15.310Z,17.60
2019-03-12T04:10:44.954Z,11.73
2019-03-12T04:13:14.216Z,13.13
2019-03-12T04:15:43.479Z,21.23
2019-03-12T04:18:12.824Z,14.67
2019-03-12T04:20:43.819Z,17.37
2019-03-12T04:23:16.107Z,12.47
2019-03-12T04:25:44.335Z,16.63
2019-03-12T04:28:13.974Z,14.50
2019-03-12T04:30:43.234Z,25.90
2019-03-12T04:33:47.699Z,27.77
2019-03-12T04:36:16.968Z,15.43
2019-03-12T04:38:46.226Z,12.87
2019-03-12T04:41:15.604Z,13.50
2019-03-12T04:43:45.195Z,18.30
2019-03-12T04:46:14.562Z,7.97
2019-03-12T04:48:43.857Z,20.57
2019-03-12T04:51:13.121Z,15.57
2019-03-12T04:53:42.463Z,16.63
2019-03-12T04:56:12.087Z,13.33
2019-03-12T04:58:41.452Z,16.23
2019-03-12T05:01:11.132Z,18.87
2019-03-12T05:03:40.434Z,20.73
2019-03-12T05:06:09.755Z,24.77
2019-03-12T05:08:39.035Z,21.03
2019-03-12T05:11:08.763Z,16.23
2019-03-12T05:13:38.074Z,22.93
2019-03-12T05:16:07.410Z,15.30
2019-03-12T05:18:37.185Z,13.27
2019-03-12T05:21:06.506Z,22.03
2019-03-12T05:23:35.813Z,27.63
2019-03-12T05:26:06.497Z,16.37
2019-03-12T05:28:35.823Z,9.60
2019-03-12T05:31:05.214Z,9.40
2019-03-12T05:33:34.916Z,7.80
2019-03-12T05:36:07.269Z,15.87
2019-03-12T05:38:36.563Z,13.10
2019-03-12T05:41:06.298Z,12.13
2019-03-12T05:43:35.580Z,12.33
2019-03-12T05:46:08.776Z,11.60
2019-03-12T05:48:38.508Z,17.13
2019-03-12T05:51:07.820Z,11.60
2019-03-12T05:53:50.438Z,12.03
2019-03-12T05:56:19.965Z,19.67
2019-03-12T05:58:50.298Z,13.23
2019-03-12T06:01:20.333Z,9.10
2019-03-12T06:03:49.674Z,10.63
2019-03-12T06:06:19.040Z,18.07
2019-03-12T06:08:49.065Z,12.43
2019-03-12T06:11:18.681Z,18.90
2019-03-12T06:13:48.188Z,11.47
2019-03-12T06:16:18.036Z,5.13
2019-03-12T06:18:47.388Z,15.23
2019-03-12T06:21:16.932Z,11.40
2019-03-12T06:23:46.817Z,13.00
2019-03-12T06:26:16.307Z,5.53
2019-03-12T06:28:45.896Z,11.43
2019-03-12T06:31:28.422Z,15.37
2019-03-12T06:34:02.523Z,10.57
2019-03-12T06:36:39.906Z,13.57
2019-03-12T06:39:17.241Z,21.43
2019-03-12T06:42:02.347Z,8.97
2019-03-12T06:44:39.254Z,15.63
2019-03-12T06:47:32.018Z,11.53
2019-03-12T06:50:14.417Z,12.93
2019-03-12T06:53:09.773Z,16.13
2019-03-12T06:56:04.525Z,26.00
2019-03-12T06:58:51.943Z,11.90
2019-03-12T07:01:58.735Z,20.73
2019-03-12T07:04:44.927Z,24.23
2019-03-12T07:07:33.430Z,12.93
2019-03-12T07:10:15.661Z,17.37
2019-03-12T07:13:04.082Z,20.47
2019-03-12T07:15:53.194Z,6.37
2019-03-12T07:18:40.630Z,6.10
2019-03-12T07:21:28.095Z,25.23
2019-03-12T07:24:15.560Z,13.43
2019-03-12T07:26:54.438Z,10.40
2019-03-12T07:29:45.767Z,26.03
2019-03-12T07:32:27.980Z,6.60
2019-03-12T07:35:09.679Z,20.93
2019-03-12T08:19:02.064Z,10.17
2019-03-12T08:46:38.650Z,8.50
2019-03-12T09:01:47.394Z,10.07
2019-03-12T09:06:25.456Z,7.33
2019-03-12T09:13:41.119Z,10.70
2019-03-12T09:46:31.159Z,9.97
2019-03-12T10:02:20.060Z,7.03
2019-03-12T10:25:51.153Z,6.67
2019-03-12T10:29:07.664Z,9.40
2019-03-12T10:32:17.330Z,9.03
2019-03-12T10:35:24.718Z,8.00
2019-03-12T10:38:48.020Z,13.33
2019-03-12T10:41:55.663Z,9.73
2019-03-12T10:44:56.269Z,10.53
2019-03-12T10:47:47.621Z,9.07
2019-03-12T10:50:29.889Z,13.93
2019-03-12T10:53:16.583Z,6.57
2019-03-12T10:55:59.767Z,19.60
2019-03-12T10:58:49.435Z,9.97
2019-03-12T11:01:27.631Z,14.07
2019-03-12T11:04:17.221Z,9.67
2019-03-12T11:07:16.525Z,11.53
2019-03-12T11:09:51.725Z,13.00
2019-03-12T11:12:31.940Z,7.97
2019-03-12T11:15:28.399Z,8.60
2019-03-12T11:18:18.403Z,12.93
2019-03-12T11:20:59.096Z,7.80
2019-03-12T11:23:43.062Z,11.93
2019-03-12T11:26:27.693Z,10.27
2019-03-12T11:29:03.861Z,10.27
2019-03-12T11:31:41.905Z,8.57
2019-03-12T11:34:26.023Z,7.53
2019-03-12T11:37:03.759Z,11.67
2019-03-12T11:39:48.588Z,12.60
2019-03-12T11:42:26.040Z,6.67
2019-03-12T11:45:13.366Z,14.73
2019-03-12T11:47:43.923Z,15.27
2019-03-12T11:50:26.063Z,11.57
2019-03-12T11:53:10.744Z,10.37
2019-03-12T11:55:45.676Z,4.93
2019-03-12T11:58:21.775Z,14.33
2019-03-12T12:01:05.581Z,6.10
2019-03-12T12:03:45.074Z,8.00
2019-03-12T12:06:21.203Z,8.90
2019-03-12T12:08:56.288Z,7.97
2019-03-12T12:11:33.930Z,13.73
2019-03-12T12:14:10.463Z,11.83
2019-03-12T12:16:43.640Z,8.27
2019-03-12T12:19:18.444Z,5.87
2019-03-12T12:21:52.996Z,11.07
2019-03-12T12:24:28.181Z,8.33
2019-03-12T12:29:37.713Z,7.73
2019-03-12T12:32:14.251Z,9.30
2019-03-12T12:34:48.850Z,9.60
2019-03-12T12:37:23.763Z,11.50
2019-03-12T12:39:58.649Z,7.43
2019-03-12T12:42:36.177Z,7.70
2019-03-12T12:45:12.151Z,13.70
2019-03-12T12:47:45.800Z,9.73
2019-03-12T12:50:22.637Z,15.03
2019-03-12T12:52:57.157Z,19.97
2019-03-12T12:55:31.188Z,6.70
2019-03-12T12:58:09.373Z,10.27
2019-03-12T13:00:43.966Z,8.73
2019-03-12T13:03:22.806Z,16.67
2019-03-12T13:05:57.739Z,9.30
2019-03-12T13:08:35.039Z,6.27
2019-03-12T13:11:10.993Z,13.23
2019-03-12T13:13:43.003Z,11.13
2019-03-12T13:16:24.902Z,9.97
2019-03-12T13:18:52.111Z,8.03
2019-03-12T13:21:26.777Z,6.47
2019-03-12T13:23:58.439Z,10.40
2019-03-12T13:26:31.156Z,8.67
2019-03-12T13:29:11.391Z,7.23
2019-03-12T13:31:45.638Z,8.47
2019-03-12T13:34:30.386Z,8.20
2019-03-12T13:37:13.148Z,11.00
2019-03-12T13:39:49.545Z,11.37
2019-03-12T13:44:54.968Z,6.80
2019-03-12T13:47:32.340Z,7.63
2019-03-12T13:50:15.320Z,7.47
2019-03-12T13:52:53.475Z,7.57
2019-03-12T13:55:28.716Z,8.23
2019-03-12T13:58:09.780Z,7.67
2019-03-12T14:00:48.823Z,8.50
2019-03-12T14:03:33.391Z,8.30
2019-03-12T14:06:07.442Z,5.50
2019-03-12T14:08:41.032Z,5.97
2019-03-12T14:11:19.556Z,3.13
2019-03-12T14:13:53.681Z,5.33
2019-03-12T14:16:29.188Z,4.93
2019-03-12T14:19:04.792Z,9.00
2019-03-12T14:21:57.876Z,5.70
2019-03-12T14:24:31.882Z,2.73
2019-03-12T14:27:10.626Z,6.43
2019-03-12T14:29:48.846Z,4.80
2019-03-12T14:32:29.324Z,4.40
2019-03-12T14:35:07.644Z,5.53
2019-03-12T14:37:45.281Z,5.93
2019-03-12T14:40:20.875Z,3.27
2019-03-12T14:43:00.422Z,4.50
2019-03-12T14:45:39.643Z,5.23
2019-03-12T14:48:34.228Z,9.50
2019-03-12T14:51:20.229Z,3.67
2019-03-12T14:53:57.018Z,5.07
2019-03-12T14:56:35.675Z,2.70
2019-03-12T14:59:20.918Z,5.23
2019-03-12T15:01:54.106Z,3.03
2019-03-12T15:04:30.392Z,3.90
2019-03-12T15:07:08.333Z,4.77
2019-03-12T15:09:46.974Z,2.40
2019-03-12T15:12:25.057Z,1.80
2019-03-12T15:14:57.629Z,2.50
2019-03-12T15:17:31.420Z,4.20
2019-03-12T15:20:13.811Z,2.93
2019-03-12T15:22:50.540Z,4.57
2019-03-12T15:25:30.777Z,2.10
2019-03-12T15:28:08.184Z,1.27
2019-03-12T15:30:45.239Z,5.83
2019-03-12T15:33:27.218Z,2.07
2019-03-12T15:36:06.141Z,1.83
2019-03-12T15:38:50.470Z,1.97
2019-03-12T15:41:29.709Z,7.50
2019-03-12T15:44:08.269Z,2.63
2019-03-12T15:46:42.217Z,3.43
2019-03-12T15:49:15.436Z,1.63
2019-03-12T15:51:49.175Z,2.30
2019-03-12T15:54:22.317Z,2.70
2019-03-12T15:56:57.880Z,3.57
2019-03-12T15:59:31.393Z,2.40
2019-03-12T16:02:07.427Z,1.60
2019-03-12T16:04:43.676Z,1.13
2019-03-12T16:07:31.931Z,2.00
2019-03-12T16:10:12.419Z,3.80
2019-03-12T16:12:54.057Z,3.67
2019-03-12T16:15:33.931Z,4.10
2019-03-12T16:18:16.584Z,3.20
2019-03-12T16:20:55.025Z,4.17
2019-03-12T16:23:35.075Z,1.80
2019-03-12T16:26:19.124Z,1.80
2019-03-12T16:28:58.777Z,2.50
2019-03-12T16:31:35.285Z,12.23
2019-03-12T16:34:15.819Z,2.17
2019-03-12T16:36:48.773Z,1.93
2019-03-12T16:39:24.325Z,3.60
2019-03-12T16:41:57.166Z,2.20
2019-03-12T16:44:37.711Z,4.67
2019-03-12T16:47:16.723Z,30.37
2019-03-12T16:49:56.148Z,12.77
2019-03-12T16:52:28.976Z,1.10
2019-03-12T16:55:10.005Z,1.93
2019-03-12T16:57:48.864Z,1.40
2019-03-12T17:00:28.057Z,2.13
2019-03-12T17:03:05.358Z,2.50
2019-03-12T17:05:47.343Z,2.10
2019-03-12T17:08:22.196Z,9.43
2019-03-12T17:11:02.510Z,2.43
2019-03-12T17:13:37.755Z,1.37
2019-03-12T17:16:26.578Z,4.10
2019-03-12T17:19:06.180Z,2.87
2019-03-12T17:21:56.173Z,2.40
2019-03-12T17:24:31.914Z,0.70
2019-03-12T17:27:06.509Z,1.60
2019-03-12T17:29:44.939Z,4.43
2019-03-12T17:32:24.384Z,2.67
2019-03-12T17:34:59.356Z,5.50
2019-03-12T17:37:37.558Z,1.57
2019-03-12T17:40:15.539Z,2.53
2019-03-12T17:42:54.633Z,3.87
2019-03-12T17:45:33.814Z,1.80
2019-03-12T17:48:15.209Z,1.37
2019-03-12T17:50:48.807Z,3.20
2019-03-12T17:53:23.575Z,4.73
2019-03-12T17:55:58.769Z,2.70
2019-03-12T17:58:33.788Z,2.80
2019-03-12T18:01:08.563Z,2.00
2019-03-12T18:03:42.052Z,2.70
2019-03-12T18:06:18.581Z,8.43
2019-03-12T18:08:55.410Z,1.80
2019-03-12T18:11:30.763Z,4.60
2019-03-12T18:14:07.609Z,2.87
2019-03-12T18:16:41.485Z,3.00
2019-03-12T18:19:18.453Z,3.23
2019-03-12T18:21:51.056Z,3.17
2019-03-12T18:24:33.124Z,8.93
2019-03-12T18:27:07.820Z,4.40
2019-03-12T18:29:44.362Z,4.30
2019-03-12T18:32:21.924Z,3.77
2019-03-12T18:34:57.408Z,2.30
2019-03-12T18:37:31.466Z,6.43
2019-03-12T18:40:05.221Z,3.33
2019-03-12T18:42:40.175Z,1.90
2019-03-12T18:45:19.286Z,4.70
2019-03-12T18:47:52.886Z,3.70
2019-03-12T18:50:28.263Z,6.57
2019-03-12T18:53:00.992Z,9.03
2019-03-12T18:56:04.724Z,3.27
2019-03-12T18:58:47.155Z,4.60
2019-03-12T19:01:39.158Z,3.53
2019-03-12T19:04:12.567Z,3.60
2019-03-12T19:06:54.302Z,9.80
2019-03-12T19:09:30.124Z,6.17
2019-03-12T19:12:06.172Z,2.77
2019-03-12T19:14:41.462Z,5.60
2019-03-12T19:17:17.261Z,5.47
2019-03-12T19:19:53.983Z,2.37
2019-03-12T19:22:30.883Z,4.20
2019-03-12T19:25:05.850Z,4.50
2019-03-12T19:27:41.798Z,5.00
2019-03-12T19:30:19.046Z,6.57
2019-03-12T19:32:57.837Z,4.20
2019-03-12T19:35:36.879Z,2.97
2019-03-12T19:38:17.270Z,1.60
2019-03-12T19:40:51.649Z,2.47
2019-03-12T19:43:26.471Z,2.17
2019-03-12T19:46:05.438Z,6.13
2019-03-12T19:48:38.819Z,2.50
2019-03-12T19:51:13.732Z,3.00
2019-03-12T19:53:46.882Z,4.53
2019-03-12T19:56:30.986Z,1.93
2019-03-12T19:59:10.321Z,2.30
2019-03-12T20:01:45.453Z,4.00
2019-03-12T20:04:25.670Z,4.20
2019-03-12T20:06:59.011Z,3.77
2019-03-12T20:10:18.939Z,3.37
2019-03-12T20:13:25.709Z,2.97
2019-03-12T20:16:30.502Z,3.13
2019-03-12T20:19:36.209Z,2.43
2019-03-12T20:22:47.058Z,2.00
2019-03-12T20:26:09.630Z,5.30
2019-03-12T20:29:19.167Z,2.93
2019-03-12T20:32:39.358Z,2.30
2019-03-12T20:35:59.132Z,1.43
2019-03-12T20:39:15.308Z,6.13
2019-03-12T20:42:37.192Z,2.23
2019-03-12T20:46:01.347Z,2.57
2019-03-12T20:49:11.299Z,3.63
2019-03-12T20:52:34.827Z,3.57
2019-03-12T20:55:42.349Z,4.83
2019-03-12T20:58:49.374Z,2.20
2019-03-12T21:02:22.434Z,2.87
2019-03-12T21:05:32.442Z,1.83
2019-03-12T21:08:39.121Z,1.77
2019-03-12T21:11:46.456Z,2.93
2019-03-12T21:15:12.474Z,2.07
2019-03-12T21:18:38.563Z,4.03
2019-03-12T21:21:48.326Z,16.57
2019-03-12T21:24:45.482Z,3.30
2019-03-12T21:27:59.117Z,7.60
2019-03-12T21:30:35.051Z,7.80
2019-03-12T21:33:15.399Z,4.90
2019-03-12T21:35:45.241Z,2.20
2019-03-12T21:38:17.537Z,2.60
2019-03-12T21:40:51.263Z,1.97
2019-03-12T21:43:24.046Z,1.83
2019-03-12T21:45:58.020Z,3.73
2019-03-12T21:48:29.607Z,2.27
2019-03-12T21:51:00.890Z,2.70
2019-03-12T21:53:31.906Z,3.43
2019-03-12T21:56:04.963Z,2.20
2019-03-12T21:58:39.112Z,4.37
2019-03-12T22:01:13.373Z,1.80
2019-03-12T22:03:45.369Z,1.23
2019-03-12T22:06:15.647Z,13.43
2019-03-12T22:08:49.056Z,1.70
2019-03-12T22:11:19.861Z,2.67
2019-03-12T22:13:50.195Z,1.70
2019-03-12T22:16:20.526Z,7.67
2019-03-12T22:18:52.728Z,3.20
2019-03-12T22:21:28.822Z,5.30
2019-03-12T22:24:05.553Z,6.07
2019-03-12T22:26:36.304Z,1.70
2019-03-12T22:29:11.970Z,7.37
2019-03-12T22:31:42.931Z,6.70
2019-03-12T22:34:19.144Z,2.20
2019-03-12T22:36:50.003Z,1.67
2019-03-12T22:39:21.132Z,3.10
2019-03-12T22:41:54.364Z,1.60
2019-03-12T22:44:27.113Z,4.07
2019-03-12T22:46:57.700Z,1.50
2019-03-12T22:49:29.360Z,5.10
2019-03-12T22:52:04.283Z,1.80
2019-03-12T22:54:34.938Z,1.33
2019-03-12T22:57:08.040Z,2.10
2019-03-12T22:59:38.399Z,1.50
2019-03-12T23:02:10.036Z,2.97
2019-03-12T23:04:43.295Z,1.53
2019-03-12T23:07:14.210Z,3.37
2019-03-12T23:09:44.364Z,4.93
2019-03-12T23:12:16.894Z,4.80
2019-03-12T23:14:48.610Z,4.00
2019-03-12T23:17:18.529Z,3.90
2019-03-12T23:19:48.584Z,2.70
2019-03-12T23:22:18.925Z,3.83
2019-03-12T23:24:52.551Z,1.90
2019-03-12T23:27:23.028Z,1.37
2019-03-12T23:29:55.768Z,1.30
2019-03-12T23:32:27.069Z,1.60
2019-03-12T23:34:57.360Z,1.87
2019-03-12T23:37:27.477Z,1.33
2019-03-12T23:39:57.580Z,2.20
2019-03-12T23:42:28.542Z,2.10
2019-03-12T23:45:05.759Z,2.27
2019-03-12T23:47:36.015Z,1.17
2019-03-12T23:50:08.103Z,0.50
2019-03-12T23:52:38.087Z,0.47
2019-03-12T23:55:14.158Z,2.00
2019-03-12T23:57:45.819Z,0.73
